createdAt,value
2018-11-27T00:01:21.434Z,101086.23
2018-11-27T00:03:56.166Z,101087.42
2018-11-27T00:06:25.613Z,101089.69
2018-11-27T00:08:55.103Z,101085.69
2018-11-27T00:11:24.498Z,101096.24
2018-11-27T00:13:54.003Z,101102.06
2018-11-27T00:16:23.429Z,101088.95
2018-11-27T00:18:52.898Z,101102.86
2018-11-27T00:21:22.444Z,101101.91
2018-11-27T00:23:51.926Z,101097.27
2018-11-27T00:26:21.336Z,101095.70
2018-11-27T00:28:50.733Z,101101.84
2018-11-27T00:31:20.265Z,101106.28
2018-11-27T00:33:49.669Z,101103.42
2018-11-27T00:36:19.142Z,101098.00
2018-11-27T00:38:48.539Z,101104.23
2018-11-27T00:41:18.829Z,101114.69
2018-11-27T00:43:47.383Z,101112.81
2018-11-27T00:46:16.863Z,101120.69
2018-11-27T00:48:46.295Z,101117.08
2018-11-27T00:51:15.770Z,101120.22
2018-11-27T00:53:45.211Z,101117.84
2018-11-27T00:56:14.607Z,101115.97
2018-11-27T00:58:44.007Z,101117.44
2018-11-27T01:01:13.533Z,101125.45
2018-11-27T01:03:43.010Z,101118.06
2018-11-27T01:06:12.422Z,101128.59
2018-11-27T01:08:41.827Z,101130.38
2018-11-27T01:11:11.304Z,101130.17
2018-11-27T01:13:40.843Z,101133.52
2018-11-27T01:16:10.310Z,101132.52
2018-11-27T01:18:39.790Z,101137.38
2018-11-27T01:21:09.175Z,101141.89
2018-11-27T01:23:45.300Z,101135.18
2018-11-27T01:26:14.789Z,101134.97
2018-11-27T01:28:44.219Z,101134.09
2018-11-27T01:31:13.696Z,101132.20
2018-11-27T01:33:43.109Z,101135.27
2018-11-27T01:36:12.497Z,101137.83
2018-11-27T01:38:41.903Z,101148.06
2018-11-27T01:41:11.287Z,101141.17
2018-11-27T01:43:40.743Z,101138.93
2018-11-27T01:46:10.129Z,101142.27
2018-11-27T01:48:39.643Z,101136.66
2018-11-27T01:51:09.064Z,101142.27
2018-11-27T01:53:38.518Z,101140.39
2018-11-27T01:56:07.944Z,101139.22
2018-11-27T01:58:37.358Z,101145.52
2018-11-27T02:01:07.067Z,101138.52
2018-11-27T02:03:36.471Z,101147.48
2018-11-27T02:06:06.491Z,101147.38
2018-11-27T02:08:35.912Z,101146.48
2018-11-27T02:11:05.498Z,101137.63
2018-11-27T02:13:34.891Z,101140.47
2018-11-27T02:16:04.281Z,101142.14
2018-11-27T02:18:33.698Z,101142.92
2018-11-27T02:21:03.203Z,101151.00
2018-11-27T02:23:32.740Z,101145.20
2018-11-27T02:26:02.137Z,101154.66
2018-11-27T02:28:31.546Z,101146.38
2018-11-27T02:31:00.987Z,101156.52
2018-11-27T02:33:30.405Z,101152.28
2018-11-27T02:35:59.862Z,101153.56
2018-11-27T02:38:29.432Z,101158.58
2018-11-27T02:40:58.851Z,101163.30
2018-11-27T02:43:28.341Z,101162.41
2018-11-27T02:45:57.756Z,101170.59
2018-11-27T02:48:27.148Z,101172.55
2018-11-27T02:50:56.654Z,101176.32
2018-11-27T02:53:26.293Z,101181.44
2018-11-27T02:55:56.175Z,101182.80
2018-11-27T02:58:25.705Z,101189.80
2018-11-27T03:00:55.161Z,101188.12
2018-11-27T03:03:24.597Z,101177.10
2018-11-27T03:05:54.102Z,101185.28
2018-11-27T03:08:23.604Z,101188.63
2018-11-27T03:10:53.145Z,101190.41
2018-11-27T03:13:22.501Z,101183.89
2018-11-27T03:15:51.866Z,101185.56
2018-11-27T03:18:21.285Z,101182.80
2018-11-27T03:20:50.685Z,101196.09
2018-11-27T03:23:20.047Z,101190.48
2018-11-27T03:25:49.493Z,101192.96
2018-11-27T03:28:18.897Z,101193.85
2018-11-27T03:30:48.259Z,101191.69
2018-11-27T03:33:17.642Z,101190.30
2018-11-27T03:35:47.107Z,101191.97
2018-11-27T03:38:16.469Z,101196.48
2018-11-27T03:40:45.913Z,101212.23
2018-11-27T03:43:15.266Z,101220.91
2018-11-27T03:45:44.724Z,101218.74
2018-11-27T03:48:14.247Z,101213.80
2018-11-27T03:50:43.652Z,101219.92
2018-11-27T03:53:13.037Z,101222.20
2018-11-27T03:55:42.433Z,101216.97
2018-11-27T03:58:11.845Z,101218.03
2018-11-27T04:00:41.185Z,101222.66
2018-11-27T04:03:12.486Z,101222.83
2018-11-27T04:05:42.809Z,101218.48
2018-11-27T04:08:12.216Z,101215.36
2018-11-27T04:10:42.354Z,101219.98
2018-11-27T04:13:11.764Z,101224.31
2018-11-27T04:15:41.146Z,101224.70
2018-11-27T04:18:10.506Z,101220.09
2018-11-27T04:20:39.950Z,101227.77
2018-11-27T04:23:09.336Z,101225.98
2018-11-27T04:25:38.787Z,101230.82
2018-11-27T04:28:08.767Z,101229.33
2018-11-27T04:30:38.143Z,101235.23
2018-11-27T04:33:07.577Z,101238.06
2018-11-27T04:35:36.973Z,101242.19
2018-11-27T04:38:06.997Z,101240.91
2018-11-27T04:40:36.374Z,101245.14
2018-11-27T04:43:06.493Z,101245.14
2018-11-27T04:45:36.047Z,101242.86
2018-11-27T04:48:05.532Z,101245.14
2018-11-27T04:50:34.893Z,101249.48
2018-11-27T04:53:04.257Z,101251.92
2018-11-27T04:55:33.698Z,101259.11
2018-11-27T04:58:03.045Z,101259.89
2018-11-27T05:00:32.437Z,101265.28
2018-11-27T05:03:01.809Z,101265.59
2018-11-27T05:05:31.254Z,101274.05
2018-11-27T05:08:00.648Z,101277.62
2018-11-27T05:10:29.995Z,101279.08
2018-11-27T05:12:59.473Z,101281.47
2018-11-27T05:15:28.858Z,101281.86
2018-11-27T05:17:59.447Z,101276.52
2018-11-27T05:20:29.016Z,101279.47
2018-11-27T05:22:58.405Z,101287.15
2018-11-27T05:25:27.854Z,101280.36
2018-11-27T05:27:58.359Z,101286.26
2018-11-27T05:30:29.039Z,101291.77
2018-11-27T05:32:58.468Z,101294.72
2018-11-27T05:35:29.668Z,101292.16
2018-11-27T05:38:00.953Z,101288.31
2018-11-27T05:40:30.382Z,101301.11
2018-11-27T05:43:02.918Z,101304.27
2018-11-27T05:45:32.570Z,101302.09
2018-11-27T05:48:02.105Z,101303.27
2018-11-27T05:50:31.563Z,101303.27
2018-11-27T05:53:00.964Z,101297.14
2018-11-27T05:55:30.323Z,101304.05
2018-11-27T05:57:59.790Z,101300.53
2018-11-27T06:00:30.513Z,101305.77
2018-11-27T06:03:01.463Z,101313.12
2018-11-27T06:05:30.975Z,101317.28
2018-11-27T06:08:00.356Z,101317.45
2018-11-27T06:10:29.900Z,101321.79
2018-11-27T06:12:59.419Z,101332.41
2018-11-27T06:15:28.873Z,101343.73
2018-11-27T06:18:01.347Z,101337.95
2018-11-27T06:20:30.941Z,101350.69
2018-11-27T06:23:00.367Z,101337.52
2018-11-27T06:25:31.184Z,101353.66
2018-11-27T06:28:04.417Z,101354.28
2018-11-27T06:30:35.399Z,101362.13
2018-11-27T06:33:04.880Z,101361.75
2018-11-27T06:35:38.545Z,101366.53
2018-11-27T06:38:09.673Z,101372.05
2018-11-27T06:40:39.545Z,101374.27
2018-11-27T06:43:11.453Z,101377.73
2018-11-27T06:45:42.696Z,101380.62
2018-11-27T06:48:12.132Z,101385.17
2018-11-27T06:50:41.514Z,101391.88
2018-11-27T06:53:10.927Z,101383.51
2018-11-27T06:55:40.329Z,101384.22
2018-11-27T06:58:09.812Z,101379.31
2018-11-27T07:00:39.217Z,101387.21
2018-11-27T07:03:11.685Z,101391.73
2018-11-27T07:05:41.325Z,101394.13
2018-11-27T07:08:10.854Z,101394.73
2018-11-27T07:10:42.642Z,101403.52
2018-11-27T07:13:20.194Z,101402.34
2018-11-27T07:15:50.637Z,101403.31
2018-11-27T07:18:20.038Z,101409.65
2018-11-27T07:20:49.437Z,101409.57
2018-11-27T07:23:18.844Z,101409.75
2018-11-27T07:25:48.321Z,101412.81
2018-11-27T07:28:17.689Z,101411.25
2018-11-27T07:30:47.118Z,101409.67
2018-11-27T07:33:16.501Z,101420.86
2018-11-27T07:35:45.920Z,101421.92
2018-11-27T07:38:15.287Z,101434.36
2018-11-27T07:40:44.658Z,101421.13
2018-11-27T07:43:14.674Z,101432.89
2018-11-27T07:45:44.044Z,101425.11
2018-11-27T07:48:13.448Z,101435.20
2018-11-27T07:50:42.918Z,101431.84
2018-11-27T07:53:12.404Z,101434.48
2018-11-27T07:55:41.769Z,101443.48
2018-11-27T07:58:11.189Z,101438.05
2018-11-27T08:00:40.695Z,101441.62
2018-11-27T08:03:10.081Z,101448.73
2018-11-27T08:05:41.230Z,101437.59
2018-11-27T08:08:14.592Z,101438.56
2018-11-27T08:10:45.553Z,101437.84
2018-11-27T08:13:14.938Z,101439.31
2018-11-27T08:15:44.446Z,101446.11
2018-11-27T08:18:14.004Z,101448.34
2018-11-27T08:20:43.375Z,101459.38
2018-11-27T08:23:13.271Z,101460.13
2018-11-27T08:25:42.666Z,101464.96
2018-11-27T08:28:12.106Z,101463.73
2018-11-27T08:30:41.471Z,101474.89
2018-11-27T08:33:10.881Z,101478.55
2018-11-27T08:35:40.269Z,101476.13
2018-11-27T08:38:09.630Z,101480.67
2018-11-27T08:40:39.015Z,101480.75
2018-11-27T08:43:08.697Z,101485.15
2018-11-27T08:45:38.090Z,101489.59
2018-11-27T08:48:08.003Z,101480.89
2018-11-27T08:50:37.366Z,101487.91
2018-11-27T08:53:07.855Z,101497.97
2018-11-27T08:55:42.958Z,101496.66
2018-11-27T08:58:14.853Z,101502.19
2018-11-27T09:00:44.259Z,101507.19
2018-11-27T09:03:13.653Z,101519.36
2018-11-27T09:05:43.061Z,101515.70
2018-11-27T09:08:12.433Z,101509.66
2018-11-27T09:10:41.877Z,101514.11
2018-11-27T09:13:11.464Z,101522.33
2018-11-27T09:15:40.908Z,101530.34
2018-11-27T09:18:23.782Z,101537.00
2018-11-27T09:20:53.199Z,101531.82
2018-11-27T09:23:22.590Z,101536.02
2018-11-27T09:25:52.257Z,101533.81
2018-11-27T09:28:21.723Z,101537.06
2018-11-27T09:30:51.141Z,101539.39
2018-11-27T09:33:20.620Z,101545.71
2018-11-27T09:35:49.995Z,101538.74
2018-11-27T09:38:19.458Z,101546.22
2018-11-27T09:40:48.813Z,101550.19
2018-11-27T09:43:18.192Z,101542.72
2018-11-27T09:45:48.867Z,101546.95
2018-11-27T09:48:18.246Z,101545.59
2018-11-27T09:50:47.785Z,101549.36
2018-11-27T09:53:17.374Z,101553.33
2018-11-27T09:55:46.933Z,101552.61
2018-11-27T09:58:16.475Z,101556.35
2018-11-27T10:00:45.925Z,101558.53
2018-11-27T10:03:16.469Z,101558.13
2018-11-27T10:05:45.926Z,101563.81
2018-11-27T10:08:15.444Z,101571.28
2018-11-27T10:10:44.850Z,101562.97
2018-11-27T10:13:14.394Z,101565.45
2018-11-27T10:15:43.858Z,101574.88
2018-11-27T10:18:13.245Z,101578.03
2018-11-27T10:20:43.691Z,101573.06
2018-11-27T10:23:14.705Z,101576.40
2018-11-27T10:25:44.105Z,101569.79
2018-11-27T10:28:13.466Z,101573.84
2018-11-27T10:30:42.943Z,101565.48
2018-11-27T10:33:13.156Z,101558.41
2018-11-27T10:35:53.557Z,101562.78
2018-11-27T10:38:23.022Z,101567.55
2018-11-27T10:40:52.439Z,101575.86
2018-11-27T10:43:21.875Z,101564.91
2018-11-27T10:45:51.259Z,101565.89
2018-11-27T10:48:20.645Z,101572.91
2018-11-27T10:50:50.025Z,101573.41
2018-11-27T10:53:19.581Z,101575.09
2018-11-27T10:55:48.967Z,101576.92
2018-11-27T10:58:18.594Z,101572.92
2018-11-27T11:00:53.253Z,101567.44
2018-11-27T11:03:24.475Z,101572.20
2018-11-27T11:05:55.950Z,101580.44
2018-11-27T11:08:25.370Z,101570.28
2018-11-27T11:10:54.782Z,101573.44
2018-11-27T11:13:24.173Z,101591.64
2018-11-27T11:15:53.572Z,101593.95
2018-11-27T11:18:23.022Z,101599.73
2018-11-27T11:20:52.401Z,101596.75
2018-11-27T11:23:21.775Z,101591.85
2018-11-27T11:25:51.690Z,101601.38
2018-11-27T11:28:23.859Z,101597.06
2018-11-27T11:30:53.225Z,101595.72
2018-11-27T11:33:22.622Z,101605.02
2018-11-27T11:35:51.941Z,101607.28
2018-11-27T11:38:21.380Z,101609.86
2018-11-27T11:40:50.777Z,101602.92
2018-11-27T11:43:20.134Z,101602.43
2018-11-27T11:45:49.499Z,101607.19
2018-11-27T11:48:18.885Z,101610.58
2018-11-27T11:50:48.462Z,101611.88
2018-11-27T11:53:19.525Z,101614.62
2018-11-27T11:55:49.776Z,101624.61
2018-11-27T11:58:19.173Z,101628.56
2018-11-27T12:00:51.644Z,101628.16
2018-11-27T12:03:21.013Z,101625.89
2018-11-27T12:05:50.451Z,101631.46
2018-11-27T12:08:21.601Z,101637.20
2018-11-27T12:10:50.999Z,101629.22
2018-11-27T12:13:20.402Z,101631.89
2018-11-27T12:15:49.802Z,101634.56
2018-11-27T12:18:19.211Z,101633.27
2018-11-27T12:20:48.599Z,101631.48
2018-11-27T12:23:17.979Z,101636.25
2018-11-27T12:25:47.361Z,101638.52
2018-11-27T12:28:16.711Z,101634.64
2018-11-27T12:30:46.109Z,101640.53
2018-11-27T12:33:15.522Z,101642.71
2018-11-27T12:35:44.906Z,101647.79
2018-11-27T12:38:14.280Z,101643.26
2018-11-27T12:40:43.748Z,101643.03
2018-11-27T12:43:13.137Z,101641.66
2018-11-27T12:45:42.539Z,101638.98
2018-11-27T12:48:11.931Z,101644.47
2018-11-27T12:50:48.006Z,101647.84
2018-11-27T12:53:18.732Z,101648.08
2018-11-27T12:55:49.996Z,101644.38
2018-11-27T12:58:19.389Z,101648.16
2018-11-27T13:00:48.817Z,101645.50
2018-11-27T13:03:18.181Z,101642.42
2018-11-27T13:05:48.246Z,101651.02
2018-11-27T13:08:23.354Z,101662.49
2018-11-27T13:10:52.861Z,101655.95
2018-11-27T13:13:22.273Z,101643.45
2018-11-27T13:15:51.655Z,101654.08
2018-11-27T13:18:21.207Z,101658.75
2018-11-27T13:20:50.664Z,101663.03
2018-11-27T13:23:20.184Z,101658.98
2018-11-27T13:25:49.554Z,101659.78
2018-11-27T13:28:19.062Z,101665.74
2018-11-27T13:31:03.451Z,101664.14
2018-11-27T13:33:58.011Z,101663.25
2018-11-27T13:36:27.431Z,101672.38
2018-11-27T13:39:38.342Z,101668.41
2018-11-27T13:42:08.834Z,101670.81
2018-11-27T13:44:38.235Z,101671.13
2018-11-27T13:47:07.667Z,101675.73
2018-11-27T13:49:37.028Z,101676.84
2018-11-27T13:52:07.256Z,101665.14
2018-11-27T13:54:36.652Z,101671.51
2018-11-27T13:57:06.250Z,101673.50
2018-11-27T13:59:35.657Z,101682.94
2018-11-27T14:02:05.307Z,101687.52
2018-11-27T14:04:34.728Z,101683.80
2018-11-27T14:07:04.098Z,101682.52
2018-11-27T14:09:33.547Z,101690.16
2018-11-27T14:12:03.009Z,101688.60
2018-11-27T14:14:32.433Z,101690.45
2018-11-27T14:17:01.814Z,101685.72
2018-11-27T14:19:31.235Z,101692.28
2018-11-27T14:22:00.634Z,101689.77
2018-11-27T14:24:29.975Z,101697.41
2018-11-27T14:26:59.477Z,101691.27
2018-11-27T14:29:28.926Z,101690.98
2018-11-27T14:31:58.437Z,101699.52
2018-11-27T14:34:27.817Z,101690.03
2018-11-27T14:36:57.192Z,101693.07
2018-11-27T14:39:26.649Z,101694.36
2018-11-27T14:41:56.014Z,101697.98
2018-11-27T14:44:25.485Z,101706.81
2018-11-27T14:46:54.947Z,101705.64
2018-11-27T14:49:24.337Z,101702.41
2018-11-27T14:51:53.798Z,101693.20
2018-11-27T14:54:23.256Z,101703.22
2018-11-27T14:56:52.677Z,101703.03
2018-11-27T14:59:22.270Z,101705.45
2018-11-27T15:01:51.830Z,101704.06
2018-11-27T15:04:21.223Z,101695.05
2018-11-27T15:06:50.722Z,101697.53
2018-11-27T15:09:20.127Z,101705.56
2018-11-27T15:11:49.499Z,101707.25
2018-11-27T15:14:18.903Z,101718.54
2018-11-27T15:16:48.274Z,101713.18
2018-11-27T15:19:17.742Z,101720.48
2018-11-27T15:21:47.211Z,101724.05
2018-11-27T15:24:16.612Z,101725.63
2018-11-27T15:26:45.969Z,101720.08
2018-11-27T15:29:15.358Z,101720.58
2018-11-27T15:31:44.770Z,101729.59
2018-11-27T15:34:14.173Z,101725.83
2018-11-27T15:36:43.645Z,101730.19
2018-11-27T15:39:13.082Z,101728.30
2018-11-27T15:41:42.539Z,101727.50
2018-11-27T15:44:11.929Z,101733.45
2018-11-27T15:46:41.331Z,101732.16
2018-11-27T15:49:10.901Z,101736.73
2018-11-27T15:51:40.334Z,101735.73
2018-11-27T15:54:09.707Z,101737.82
2018-11-27T15:56:39.290Z,101746.34
2018-11-27T15:59:08.637Z,101737.66
2018-11-27T16:01:38.079Z,101735.88
2018-11-27T16:04:07.565Z,101736.38
2018-11-27T16:06:37.136Z,101734.20
2018-11-27T16:09:10.757Z,101734.50
2018-11-27T16:11:40.505Z,101744.80
2018-11-27T16:14:09.929Z,101753.92
2018-11-27T16:16:39.312Z,101756.56
2018-11-27T16:19:08.745Z,101755.77
2018-11-27T16:21:38.093Z,101752.00
2018-11-27T16:24:07.633Z,101764.19
2018-11-27T16:26:36.990Z,101769.44
2018-11-27T16:29:06.594Z,101775.58
2018-11-27T16:31:36.028Z,101778.66
2018-11-27T16:34:05.766Z,101778.16
2018-11-27T16:36:35.194Z,101778.66
2018-11-27T16:39:08.158Z,101785.98
2018-11-27T16:41:37.781Z,101785.49
2018-11-27T16:44:07.352Z,101797.19
2018-11-27T16:46:36.760Z,101791.14
2018-11-27T16:49:06.473Z,101795.01
2018-11-27T16:51:35.893Z,101792.43
2018-11-27T16:54:05.775Z,101795.80
2018-11-27T16:56:35.168Z,101800.56
2018-11-27T16:59:04.605Z,101799.27
2018-11-27T17:01:33.973Z,101796.30
2018-11-27T17:04:03.334Z,101807.50
2018-11-27T17:06:32.809Z,101809.87
2018-11-27T17:09:02.176Z,101809.78
2018-11-27T17:11:31.638Z,101812.95
2018-11-27T17:14:00.988Z,101813.05
2018-11-27T17:16:30.546Z,101815.33
2018-11-27T17:19:00.005Z,101816.22
2018-11-27T17:21:29.479Z,101813.74
2018-11-27T17:23:59.070Z,101815.29
2018-11-27T17:26:28.511Z,101816.37
2018-11-27T17:28:58.122Z,101815.98
2018-11-27T17:31:27.633Z,101817.37
2018-11-27T17:34:08.707Z,101819.55
2018-11-27T17:36:39.317Z,101832.53
2018-11-27T17:39:11.898Z,101837.09
2018-11-27T17:41:41.326Z,101841.76
2018-11-27T17:44:14.829Z,101845.03
2018-11-27T17:46:44.246Z,101849.98
2018-11-27T17:49:13.629Z,101845.53
2018-11-27T17:51:43.035Z,101853.76
2018-11-27T17:54:12.417Z,101849.83
2018-11-27T17:56:41.808Z,101855.28
2018-11-27T17:59:11.244Z,101855.18
2018-11-27T18:01:40.658Z,101847.55
2018-11-27T18:04:10.153Z,101844.17
2018-11-27T18:06:39.513Z,101845.53
2018-11-27T18:09:10.016Z,101843.45
2018-11-27T18:11:39.372Z,101852.08
2018-11-27T18:14:08.934Z,101846.13
2018-11-27T18:16:38.300Z,101846.13
2018-11-27T18:19:07.961Z,101852.66
2018-11-27T18:21:37.397Z,101845.62
2018-11-27T18:24:06.901Z,101850.69
2018-11-27T18:26:36.286Z,101848.94
2018-11-27T18:29:05.680Z,101849.83
2018-11-27T18:31:35.059Z,101856.67
2018-11-27T18:34:04.430Z,101847.45
2018-11-27T18:36:34.557Z,101849.33
2018-11-27T18:39:04.446Z,101851.12
2018-11-27T18:41:33.813Z,101844.28
2018-11-27T18:44:03.203Z,101840.91
2018-11-27T18:46:32.561Z,101840.11
2018-11-27T18:49:02.211Z,101842.30
2018-11-27T18:51:31.583Z,101849.63
2018-11-27T18:54:00.970Z,101847.45
2018-11-27T18:56:30.334Z,101853.59
2018-11-27T18:58:59.763Z,101855.67
2018-11-27T19:01:29.462Z,101854.78
2018-11-27T19:03:58.888Z,101850.02
2018-11-27T19:06:28.309Z,101852.61
2018-11-27T19:08:57.645Z,101857.66
2018-11-27T19:11:26.982Z,101862.52
2018-11-27T19:13:56.314Z,101859.24
2018-11-27T19:16:25.674Z,101867.37
2018-11-27T19:18:55.149Z,101869.95
2018-11-27T19:21:24.525Z,101865.13
2018-11-27T19:23:53.897Z,101867.10
2018-11-27T19:26:23.305Z,101870.47
2018-11-27T19:28:52.802Z,101884.55
2018-11-27T19:31:22.210Z,101877.61
2018-11-27T19:33:51.711Z,101881.08
2018-11-27T19:36:21.177Z,101879.89
2018-11-27T19:38:50.525Z,101878.60
2018-11-27T19:41:19.919Z,101881.17
2018-11-27T19:43:49.325Z,101882.47
2018-11-27T19:46:19.191Z,101877.31
2018-11-27T19:48:53.441Z,101877.02
2018-11-27T19:51:18.109Z,101889.11
2018-11-27T19:53:47.714Z,101889.11
2018-11-27T19:56:17.168Z,101890.10
2018-11-27T19:58:46.580Z,101900.97
2018-11-27T20:01:15.979Z,101903.66
2018-11-27T20:03:45.350Z,101908.70
2018-11-27T20:06:14.728Z,101902.36
2018-11-27T20:08:44.069Z,101905.54
2018-11-27T20:11:13.639Z,101905.94
2018-11-27T20:13:43.002Z,101901.67
2018-11-27T20:16:12.382Z,101902.56
2018-11-27T20:18:41.818Z,101906.43
2018-11-27T20:21:11.184Z,101907.52
2018-11-27T20:23:40.570Z,101908.60
2018-11-27T20:26:09.941Z,101913.30
2018-11-27T20:28:39.576Z,101913.76
2018-11-27T20:31:08.986Z,101918.52
2018-11-27T20:33:38.378Z,101920.20
2018-11-27T20:36:07.830Z,101918.91
2018-11-27T20:38:37.823Z,101918.84
2018-11-27T20:41:07.537Z,101921.92
2018-11-27T20:43:36.886Z,101918.34
2018-11-27T20:46:06.931Z,101920.53
2018-11-27T20:48:36.293Z,101924.79
2018-11-27T20:51:06.604Z,101924.79
2018-11-27T20:53:36.025Z,101932.02
2018-11-27T20:56:05.594Z,101931.03
2018-11-27T20:58:35.078Z,101940.44
2018-11-27T21:01:04.455Z,101945.50
2018-11-27T21:03:34.179Z,101940.73
2018-11-27T21:06:03.612Z,101944.80
2018-11-27T21:08:33.019Z,101947.48
2018-11-27T21:11:08.092Z,101949.38
2018-11-27T21:13:31.795Z,101951.63
2018-11-27T21:16:01.256Z,101950.34
2018-11-27T21:18:30.729Z,101958.96
2018-11-27T21:21:00.524Z,101970.56
2018-11-27T21:23:29.877Z,101967.88
2018-11-27T21:26:05.168Z,101963.16
2018-11-27T21:28:35.161Z,101959.68
2018-11-27T21:31:06.446Z,101952.24
2018-11-27T21:33:35.806Z,101959.48
2018-11-27T21:36:05.696Z,101957.69
2018-11-27T21:38:35.073Z,101953.93
2018-11-27T21:41:04.405Z,101954.82
2018-11-27T21:43:33.770Z,101952.74
2018-11-27T21:46:03.110Z,101951.06
2018-11-27T21:48:32.478Z,101961.86
2018-11-27T21:51:01.844Z,101964.51
2018-11-27T21:53:31.237Z,101971.84
2018-11-27T21:56:00.587Z,101975.71
2018-11-27T21:58:29.985Z,101974.81
2018-11-27T22:00:59.618Z,101974.81
2018-11-27T22:03:31.885Z,101979.28
2018-11-27T22:06:01.284Z,101982.75
2018-11-27T22:08:30.783Z,101982.75
2018-11-27T22:11:00.206Z,101983.55
2018-11-27T22:13:29.577Z,101985.13
2018-11-27T22:15:58.982Z,101987.14
2018-11-27T22:18:28.369Z,101989.71
2018-11-27T22:20:57.914Z,101995.77
2018-11-27T22:23:27.315Z,102000.52
2018-11-27T22:25:56.657Z,101999.30
2018-11-27T22:28:26.009Z,102007.64
2018-11-27T22:30:55.375Z,102003.37
2018-11-27T22:33:24.835Z,102007.34
2018-11-27T22:35:54.259Z,102014.09
2018-11-27T22:38:23.591Z,102008.05
2018-11-27T22:40:53.003Z,102014.39
2018-11-27T22:43:22.369Z,102009.63
2018-11-27T22:45:51.817Z,102020.83
2018-11-27T22:48:21.485Z,102021.23
2018-11-27T22:50:50.928Z,102022.02
2018-11-27T22:53:20.351Z,102014.58
2018-11-27T22:55:49.746Z,102025.67
2018-11-27T22:58:19.100Z,102032.63
2018-11-27T23:00:51.381Z,102025.88
2018-11-27T23:03:21.010Z,102028.56
2018-11-27T23:05:50.473Z,102017.86
2018-11-27T23:08:19.821Z,102021.83
2018-11-27T23:10:49.967Z,102014.98
2018-11-27T23:13:19.346Z,102028.38
2018-11-27T23:15:48.706Z,102029.16
2018-11-27T23:18:18.067Z,102029.95
2018-11-27T23:20:47.449Z,102037.48
2018-11-27T23:23:17.013Z,102042.64
2018-11-27T23:25:46.390Z,102036.59
2018-11-27T23:28:15.754Z,102034.41
2018-11-27T23:30:45.166Z,102033.02
2018-11-27T23:33:14.585Z,102025.28
2018-11-27T23:35:44.005Z,102023.49
2018-11-27T23:38:13.365Z,102016.76
2018-11-27T23:40:42.753Z,102012.70
2018-11-27T23:43:12.191Z,102025.80
2018-11-27T23:45:41.579Z,102025.69
2018-11-27T23:48:10.995Z,102030.84
2018-11-27T23:50:40.380Z,102025.59
2018-11-27T23:53:09.841Z,102028.56
2018-11-27T23:55:39.289Z,102027.88
2018-11-27T23:58:08.795Z,102031.75
